Time;durP1;ratioP1;P1;durP2;ratioP2;P2;SDS_P1;SDS_P2;PMS_P1;PMS_P2;Temp;Humidity;BMP_temperature;BMP_pressure;BME280_temperature;BME280_humidity;BME280_pressure;Samples;Min_cycle;Max_cycle;Signal;HPM_P1;HPM_P2
2021/05/02 00:01:09;;;;;;;13.90;12.35;;;;;;;7.44;78.99;100879.47;5012453;28;20029;-85
2021/05/02 00:03:34;;;;;;;14.43;12.93;;;;;;;7.35;78.94;100878.97;5012035;28;20037;-86
2021/05/02 00:06:00;;;;;;;16.88;14.20;;;;;;;7.08;80.59;100869.81;5016093;28;20025;-86
2021/05/02 00:08:27;;;;;;;15.13;12.77;;;;;;;7.24;78.87;100869.94;5012287;28;20030;-86
2021/05/02 00:10:53;;;;;;;15.73;13.05;;;;;;;7.11;79.36;100878.34;5012209;28;20018;-86
2021/05/02 00:13:19;;;;;;;14.00;12.57;;;;;;;6.85;79.75;100876.94;5012384;28;20030;-85
2021/05/02 00:15:44;;;;;;;12.82;11.50;;;;;;;6.83;79.94;100875.28;4994224;28;20022;-86
2021/05/02 00:18:10;;;;;;;15.15;12.27;;;;;;;7.05;78.34;100869.94;5042621;22;20041;-93
2021/05/02 00:20:36;;;;;;;13.90;12.40;;;;;;;7.11;79.06;100870.53;5032078;28;20033;-92
2021/05/02 00:23:05;;;;;;;14.35;12.07;;;;;;;7.12;79.22;100866.97;5032265;28;20029;-93
2021/05/02 00:25:32;;;;;;;14.57;11.32;;;;;;;7.14;78.32;100869.53;5015919;28;20037;-93
2021/05/02 00:28:06;;;;;;;13.45;11.45;;;;;;;7.09;79.17;100864.53;5017151;28;20124;-93
2021/05/02 00:30:32;;;;;;;13.43;10.60;;;;;;;7.12;78.67;100866.97;5014633;28;20017;-93
2021/05/02 00:32:59;;;;;;;14.43;12.73;;;;;;;7.10;78.34;100865.38;5014938;28;20021;-94
2021/05/02 00:35:25;;;;;;;11.30;10.10;;;;;;;7.09;78.71;100867.13;5014439;28;20030;-93
2021/05/02 00:37:52;;;;;;;12.57;10.90;;;;;;;7.11;78.24;100873.13;5013363;28;20068;-93
2021/05/02 00:40:39;;;;;;;12.32;11.02;;;;;;;7.08;77.87;100861.97;5014879;28;20063;-94
2021/05/02 00:43:07;;;;;;;15.23;12.27;;;;;;;7.10;78.30;100871.44;5016477;28;20029;-94
2021/05/02 00:45:48;;;;;;;12.20;11.00;;;;;;;7.06;78.40;100867.28;5017210;28;20107;-93
2021/05/02 00:48:20;;;;;;;12.38;10.82;;;;;;;7.05;79.42;100873.44;5017534;28;20395;-93
2021/05/02 00:50:50;;;;;;;12.18;10.82;;;;;;;7.07;79.02;100863.75;5023553;28;20012;-93
2021/05/02 00:53:31;;;;;;;13.90;12.43;;;;;;;7.08;78.74;100865.44;5033475;28;20026;-92
2021/05/02 00:55:58;;;;;;;13.80;12.32;;;;;;;7.05;78.46;100873.44;5033255;28;20022;-93
2021/05/02 00:58:44;;;;;;;15.45;12.77;;;;;;;7.04;78.22;100869.09;5025860;28;20029;-92
2021/05/02 01:01:18;;;;;;;15.45;12.82;;;;;;;7.00;78.75;100872.78;5026013;28;20018;-93
2021/05/02 01:03:47;;;;;;;15.27;13.40;;;;;;;6.98;78.35;100869.38;5026014;28;20547;-92
2021/05/02 01:06:15;;;;;;;15.50;13.18;;;;;;;6.94;78.65;100873.06;5020026;28;20098;-93
2021/05/02 01:08:42;;;;;;;14.30;12.30;;;;;;;6.84;78.68;100866.56;5014595;28;20067;-94
2021/05/02 01:11:11;;;;;;;14.48;12.95;;;;;;;6.85;79.51;100876.06;5016930;28;20030;-94
2021/05/02 01:13:44;;;;;;;13.95;12.43;;;;;;;6.83;79.88;100881.38;5018533;28;20018;-94
2021/05/02 01:16:13;;;;;;;17.58;14.48;;;;;;;6.71;79.19;100882.78;5018671;28;20029;-94
2021/05/02 01:18:39;;;;;;;16.65;13.60;;;;;;;6.64;79.97;100885.72;5018407;28;20021;-93
2021/05/02 01:21:05;;;;;;;18.10;14.77;;;;;;;6.67;80.02;100885.56;5018028;28;20034;-94
2021/05/02 01:23:31;;;;;;;18.45;14.68;;;;;;;6.64;79.58;100878.72;5018131;28;20065;-93
2021/05/02 01:25:59;;;;;;;14.57;13.02;;;;;;;6.67;80.23;100886.41;5018453;28;20025;-94
2021/05/02 01:28:26;;;;;;;16.10;13.57;;;;;;;6.37;79.54;100888.59;5018096;28;20030;-93
2021/05/02 01:30:53;;;;;;;12.57;11.27;;;;;;;6.15;80.18;100886.06;5018208;28;20022;-94
2021/05/02 01:33:19;;;;;;;13.30;11.32;;;;;;;6.08;81.09;100892.41;5017711;28;20033;-93
2021/05/02 01:35:46;;;;;;;14.38;12.10;;;;;;;6.28;80.62;100889.84;4998105;28;20128;-93
2021/05/02 01:38:13;;;;;;;15.00;13.18;;;;;;;6.38;80.44;100889.44;5011705;28;20075;-94
2021/05/02 01:40:40;;;;;;;16.42;13.60;;;;;;;6.46;80.16;100888.22;5017832;28;20036;-94
2021/05/02 01:43:05;;;;;;;17.83;14.27;;;;;;;6.50;79.77;100888.94;5017784;28;20121;-93
2021/05/02 01:45:31;;;;;;;19.65;15.10;;;;;;;6.49;79.68;100895.03;5017790;28;20040;-93
2021/05/02 01:48:04;;;;;;;19.05;14.32;;;;;;;6.50;79.35;100896.75;5017647;28;20103;-94
2021/05/02 01:50:34;;;;;;;15.98;13.27;;;;;;;6.49;79.96;100892.44;5013631;28;20024;-94
2021/05/02 01:52:59;;;;;;;14.50;12.63;;;;;;;6.47;79.73;100884.66;5007872;28;20136;-94
2021/05/02 01:55:25;;;;;;;18.17;13.27;;;;;;;6.52;79.66;100893.16;5017904;28;20498;-93
2021/05/02 01:57:53;;;;;;;14.57;12.18;;;;;;;6.55;79.70;100894.78;5017462;28;20022;-94
2021/05/02 02:00:25;;;;;;;14.60;11.98;;;;;;;6.48;79.09;100898.59;5020441;28;20029;-94
2021/05/02 02:02:57;;;;;;;14.98;11.77;;;;;;;6.46;78.78;100897.81;5021886;28;20049;-94
2021/05/02 02:05:24;;;;;;;13.27;11.88;;;;;;;6.41;78.60;100903.19;5008420;28;20048;-94
2021/05/02 02:07:51;;;;;;;16.75;12.07;;;;;;;6.37;79.09;100914.69;5015439;28;20167;-94
2021/05/02 02:10:19;;;;;;;13.85;12.27;;;;;;;6.37;78.48;100906.84;5017327;28;20025;-94
2021/05/02 02:12:46;;;;;;;14.40;12.70;;;;;;;6.26;79.11;100904.72;5017336;28;20098;-94
2021/05/02 02:15:12;;;;;;;13.63;12.07;;;;;;;6.00;79.61;100904.94;5017047;28;20399;-94
2021/05/02 02:17:38;;;;;;;13.20;11.07;;;;;;;5.82;80.59;100909.94;5017559;28;20558;-94
2021/05/02 02:20:05;;;;;;;13.38;11.27;;;;;;;5.75;79.90;100901.53;5015133;28;20119;-95
2021/05/02 02:22:39;;;;;;;11.43;10.32;;;;;;;5.91;80.47;100906.13;5009977;28;20033;-94
2021/05/02 02:25:06;;;;;;;13.73;10.90;;;;;;;5.99;80.02;100904.09;5017409;28;20120;-95
2021/05/02 02:27:33;;;;;;;13.82;10.77;;;;;;;6.04;79.84;100907.38;5017287;28;20087;-94
2021/05/02 02:30:10;;;;;;;13.13;11.10;;;;;;;6.00;79.60;100902.31;5017058;28;20022;-94
2021/05/02 02:32:43;;;;;;;11.50;10.30;;;;;;;5.97;79.73;100908.50;5016973;28;20033;-94
2021/05/02 02:35:11;;;;;;;12.95;11.07;;;;;;;5.95;79.32;100908.56;5016855;28;20065;-95
2021/05/02 02:37:38;;;;;;;12.00;10.80;;;;;;;5.88;79.79;100896.66;5016889;28;20026;-94
2021/05/02 02:40:06;;;;;;;12.77;10.88;;;;;;;5.99;79.12;100913.69;5017087;28;20072;-95
2021/05/02 02:42:35;;;;;;;14.18;11.38;;;;;;;5.98;79.36;100911.97;5016114;28;20029;-95
2021/05/02 02:45:06;;;;;;;16.67;14.02;;;;;;;5.70;79.25;100913.03;5016719;28;20053;-95
2021/05/02 02:47:36;;;;;;;15.20;12.82;;;;;;;5.70;80.82;100910.44;5016755;28;20021;-95
2021/05/02 02:50:06;;;;;;;15.35;12.93;;;;;;;5.79;80.13;100907.47;5016675;28;20025;-95
2021/05/02 02:52:41;;;;;;;15.82;12.13;;;;;;;5.92;80.54;100915.63;5016744;28;20026;-95
2021/05/02 02:55:10;;;;;;;13.90;12.07;;;;;;;5.92;79.38;100916.50;5016977;28;20033;-95
2021/05/02 02:58:00;;;;;;;15.93;12.48;;;;;;;5.97;79.76;100915.50;5008276;28;20049;-95
2021/05/02 03:00:31;;;;;;;14.05;11.82;;;;;;;5.97;79.80;100915.50;4999309;28;20041;-95
2021/05/02 03:02:56;;;;;;;13.18;11.02;;;;;;;5.88;77.94;100912.28;5015399;28;20387;-96
2021/05/02 03:05:25;;;;;;;15.55;11.52;;;;;;;5.89;79.12;100910.56;5016747;28;20037;-96
2021/05/02 03:07:52;;;;;;;16.75;14.10;;;;;;;5.68;80.66;100910.47;5016805;28;20031;-96
2021/05/02 03:10:19;;;;;;;16.65;14.02;;;;;;;5.76;80.38;100912.78;5018516;28;20507;-93
2021/05/02 03:12:49;;;;;;;17.45;13.85;;;;;;;5.82;79.46;100915.16;5040580;28;20097;-96
2021/05/02 03:15:14;;;;;;;16.73;13.90;;;;;;;5.82;79.73;100915.16;5040542;28;20021;-95
2021/05/02 03:17:43;;;;;;;17.45;13.57;;;;;;;5.85;79.29;100916.81;5042309;28;20109;-96
2021/05/02 03:20:09;;;;;;;16.75;12.93;;;;;;;5.90;78.62;100917.44;5005907;28;20097;-93
2021/05/02 03:22:56;;;;;;;17.25;14.13;;;;;;;5.84;79.46;100918.53;4999141;28;20061;-96
2021/05/02 03:25:23;;;;;;;16.20;13.60;;;;;;;5.51;79.81;100918.97;5017359;28;20029;-93
2021/05/02 03:28:11;;;;;;;20.83;15.27;;;;;;;5.38;81.70;100916.91;5025113;28;20037;-93
2021/05/02 03:30:41;;;;;;;19.27;15.65;;;;;;;5.40;81.66;100915.94;5024462;28;20060;-93
2021/05/02 03:33:11;;;;;;;18.58;14.70;;;;;;;5.61;81.33;100916.00;5018722;28;20037;-93
2021/05/02 03:35:40;;;;;;;14.63;12.93;;;;;;;5.67;80.23;100915.78;5037312;28;20029;-93
2021/05/02 03:38:37;;;;;;;19.40;14.60;;;;;;;5.70;80.63;100919.09;5038990;28;20025;-95
2021/05/02 03:41:02;;;;;;;15.60;12.48;;;;;;;5.62;79.16;100925.53;5022063;28;20033;-94
2021/05/02 03:43:28;;;;;;;13.75;11.77;;;;;;;5.59;79.76;100921.28;5017083;28;20040;-95
2021/05/02 03:45:54;;;;;;;13.77;12.00;;;;;;;5.60;79.18;100932.56;4997959;28;20038;-95
2021/05/02 03:48:20;;;;;;;15.18;11.73;;;;;;;5.58;78.75;100924.78;4997124;28;20028;-95
2021/05/02 03:50:45;;;;;;;19.38;15.20;;;;;;;5.60;79.25;100922.97;5015560;28;20017;-95
2021/05/02 03:53:11;;;;;;;21.55;17.55;;;;;;;5.40;79.83;100930.72;5016841;28;20379;-95
2021/05/02 03:55:47;;;;;;;20.33;16.08;;;;;;;5.49;79.46;100930.34;5015901;28;20069;-94
2021/05/02 03:58:17;;;;;;;20.30;16.52;;;;;;;5.48;80.26;100924.28;5015957;28;20375;-94
2021/05/02 04:00:44;;;;;;;20.52;16.13;;;;;;;5.50;79.78;100935.50;5011629;28;20080;-93
2021/05/02 04:03:12;;;;;;;20.45;16.13;;;;;;;5.49;79.00;100928.59;5002900;28;20103;-94
2021/05/02 04:05:37;;;;;;;20.08;15.55;;;;;;;5.50;79.45;100935.50;5015606;28;20033;-95
2021/05/02 04:08:03;;;;;;;17.45;14.60;;;;;;;5.51;79.33;100933.72;5015363;28;20044;-95
2021/05/02 04:10:28;;;;;;;18.63;15.68;;;;;;;5.46;79.25;100928.72;5015952;28;20013;-95
2021/05/02 04:12:54;;;;;;;21.70;15.65;;;;;;;5.48;79.11;100945.13;5016288;28;20027;-96
2021/05/02 04:15:19;;;;;;;19.58;15.38;;;;;;;5.43;79.64;100939.25;5004649;28;20046;-95
2021/05/02 04:17:45;;;;;;;18.75;15.63;;;;;;;5.47;79.67;100951.25;5004288;28;20033;-94
2021/05/02 04:20:11;;;;;;;22.42;16.95;;;;;;;5.40;80.49;100952.38;5024213;28;20022;-94
2021/05/02 04:22:38;;;;;;;20.20;16.58;;;;;;;5.43;80.29;100951.41;5020014;28;20041;-93
2021/05/02 04:25:04;;;;;;;21.77;17.75;;;;;;;5.45;80.80;100950.47;5026289;28;20033;-94
2021/05/02 04:27:29;;;;;;;22.00;18.23;;;;;;;5.38;80.59;100954.19;5028819;28;20160;-94
2021/05/02 04:29:57;;;;;;;25.30;19.13;;;;;;;5.32;80.83;100957.88;5023292;28;20030;-94
2021/05/02 04:32:22;;;;;;;23.27;17.33;;;;;;;5.38;80.82;100963.78;5018208;28;20026;-93
2021/05/02 04:34:48;;;;;;;23.00;17.77;;;;;;;5.27;79.29;100972.84;5020743;28;20056;-94
2021/05/02 04:37:13;;;;;;;19.40;15.88;;;;;;;5.06;80.22;100966.66;5028801;28;20095;-94
2021/05/02 04:39:39;;;;;;;21.73;16.65;;;;;;;4.79;83.50;100972.84;5031151;28;20032;-93
2021/05/02 04:42:05;;;;;;;21.65;17.52;;;;;;;4.90;83.25;100973.31;5029293;28;20180;-93
2021/05/02 04:44:30;;;;;;;25.27;18.58;;;;;;;5.02;82.92;100972.88;5025626;28;20026;-93
2021/05/02 04:46:56;;;;;;;21.13;16.35;;;;;;;5.16;82.55;100973.22;5027508;28;20030;-92
2021/05/02 04:49:22;;;;;;;21.58;17.05;;;;;;;5.27;82.26;100978.06;5025686;28;20032;-94
2021/05/02 04:51:48;;;;;;;21.92;17.88;;;;;;;5.32;81.68;100975.25;5016143;28;20026;-94
2021/05/02 04:54:13;;;;;;;23.95;18.77;;;;;;;5.36;82.21;100976.84;5022668;28;20112;-94
2021/05/02 04:56:39;;;;;;;22.17;17.75;;;;;;;5.35;81.34;100977.75;5019512;28;20033;-94
2021/05/02 04:59:06;;;;;;;21.55;17.83;;;;;;;5.33;80.84;100982.16;5016123;28;20037;-94
2021/05/02 05:01:32;;;;;;;22.27;17.85;;;;;;;5.34;81.04;100989.06;5000368;28;20026;-94
2021/05/02 05:03:57;;;;;;;22.33;17.25;;;;;;;5.38;80.56;100984.59;5007867;28;20164;-92
2021/05/02 05:06:23;;;;;;;20.38;16.70;;;;;;;5.40;80.07;100991.44;5008788;28;20026;-94
2021/05/02 05:08:50;;;;;;;21.52;16.80;;;;;;;5.44;80.93;100990.44;5016842;28;20295;-94
2021/05/02 05:11:15;;;;;;;22.92;16.77;;;;;;;5.49;80.66;100987.63;5018155;28;20029;-93
2021/05/02 05:13:40;;;;;;;19.98;15.90;;;;;;;5.48;80.06;100991.16;5017465;28;20033;-93
2021/05/02 05:16:06;;;;;;;17.55;14.75;;;;;;;5.52;80.08;100997.97;5023763;28;20057;-94
2021/05/02 05:18:31;;;;;;;19.90;15.98;;;;;;;5.55;80.36;100996.09;5017015;28;20486;-94
2021/05/02 05:20:57;;;;;;;22.60;18.20;;;;;;;5.55;79.20;100990.88;5012689;28;20089;-93
2021/05/02 05:23:24;;;;;;;23.38;18.60;;;;;;;5.56;79.75;100989.97;5005893;28;20468;-93
2021/05/02 05:25:49;;;;;;;20.35;16.52;;;;;;;5.59;80.29;101001.16;4998810;28;20113;-93
2021/05/02 05:28:15;;;;;;;19.90;16.27;;;;;;;5.65;79.89;101004.41;5014977;28;20112;-94
2021/05/02 05:30:41;;;;;;;21.05;16.13;;;;;;;5.72;79.86;100999.81;5015979;28;20393;-93
2021/05/02 05:33:08;;;;;;;21.75;17.60;;;;;;;5.76;80.16;101007.44;5031225;28;20075;-94
2021/05/02 05:35:35;;;;;;;22.17;17.20;;;;;;;5.82;80.16;101001.16;5016759;28;20026;-92
2021/05/02 05:38:01;;;;;;;23.30;18.30;;;;;;;5.89;80.16;101002.63;5031994;28;20079;-94
2021/05/02 05:40:27;;;;;;;22.05;17.65;;;;;;;5.99;80.07;101004.91;5017461;28;20026;-94
2021/05/02 05:42:53;;;;;;;23.42;19.20;;;;;;;6.08;81.01;101012.34;5017163;28;20021;-94
2021/05/02 05:45:19;;;;;;;25.15;19.38;;;;;;;6.23;80.16;101014.34;5015486;28;20068;-95
2021/05/02 05:47:46;;;;;;;21.00;18.17;;;;;;;6.37;80.36;101015.56;5018731;28;20025;-95
2021/05/02 05:50:14;;;;;;;23.67;17.92;;;;;;;6.57;80.66;101018.19;5016849;28;20112;-95
2021/05/02 05:52:43;;;;;;;22.10;17.40;;;;;;;6.78;80.03;101023.44;5017075;28;20028;-93
2021/05/02 05:55:10;;;;;;;20.25;17.08;;;;;;;6.92;78.87;101031.53;5017146;28;20037;-92
2021/05/02 05:57:35;;;;;;;20.52;17.52;;;;;;;7.10;80.05;101025.50;5013920;28;20029;-94
2021/05/02 06:00:02;;;;;;;20.55;16.48;;;;;;;7.32;80.10;101024.56;5000760;28;20056;-92
2021/05/02 06:02:28;;;;;;;22.55;17.88;;;;;;;7.51;78.44;101032.44;5025878;28;20037;-93
2021/05/02 06:04:53;;;;;;;20.65;16.58;;;;;;;7.50;77.74;101033.34;5021914;28;20022;-93
2021/05/02 06:07:19;;;;;;;21.90;17.27;;;;;;;7.67;77.92;101038.66;5018389;28;20045;-93
2021/05/02 06:09:44;;;;;;;19.70;16.88;;;;;;;7.69;77.61;101039.44;5010923;28;20029;-93
2021/05/02 06:12:09;;;;;;;20.00;16.20;;;;;;;7.89;77.79;101035.88;5009009;28;20030;-93
2021/05/02 06:14:35;;;;;;;20.17;16.02;;;;;;;8.01;78.11;101044.94;5013534;28;20036;-93
2021/05/02 06:17:00;;;;;;;19.25;16.60;;;;;;;8.19;77.11;101045.81;5011065;28;20024;-93
2021/05/02 06:19:27;;;;;;;22.35;17.80;;;;;;;8.29;76.87;101044.47;5015279;28;20053;-94
2021/05/02 06:21:53;;;;;;;16.00;14.25;;;;;;;8.41;76.37;101045.69;5015459;28;20116;-90
2021/05/02 06:24:19;;;;;;;18.25;15.98;;;;;;;8.47;75.82;101036.66;5015271;28;20597;-92
2021/05/02 06:26:44;;;;;;;20.67;16.30;;;;;;;8.46;75.22;101041.06;5016365;28;20039;-92
2021/05/02 06:29:10;;;;;;;20.70;16.55;;;;;;;8.56;75.02;101051.09;5015997;28;20037;-92
2021/05/02 06:31:35;;;;;;;19.88;16.02;;;;;;;8.46;75.04;101058.53;5010592;28;20072;-92
2021/05/02 06:34:00;;;;;;;19.25;16.38;;;;;;;8.72;74.70;101058.09;4997125;28;20029;-92
2021/05/02 06:36:26;;;;;;;19.92;16.60;;;;;;;8.96;74.24;101065.63;5000142;28;20021;-93
2021/05/02 06:38:51;;;;;;;17.55;15.75;;;;;;;9.51;74.05;101056.69;5015293;28;20361;-93
2021/05/02 06:41:17;;;;;;;19.15;17.13;;;;;;;9.45;73.58;101059.66;5015876;28;20029;-92
2021/05/02 06:43:42;;;;;;;20.10;16.70;;;;;;;9.44;72.57;101058.81;5009589;28;20454;-93
2021/05/02 06:46:26;;;;;;;22.35;15.75;;;;;;;9.39;72.45;101054.72;4999107;28;20083;-93
2021/05/02 06:48:52;;;;;;;17.60;15.50;;;;;;;9.57;72.85;101060.78;5010558;28;20029;-93
2021/05/02 06:51:17;;;;;;;17.63;15.70;;;;;;;9.37;72.64;101054.81;5035209;28;20044;-91
2021/05/02 06:53:42;;;;;;;19.15;16.35;;;;;;;9.32;72.21;101057.69;5029943;28;20037;-91
2021/05/02 06:56:08;;;;;;;19.42;17.35;;;;;;;9.66;72.22;101062.91;5001214;28;20022;-93
2021/05/02 06:58:33;;;;;;;18.77;16.77;;;;;;;9.71;71.83;101066.13;5015284;28;20037;-92
2021/05/02 07:00:58;;;;;;;20.08;16.45;;;;;;;10.22;70.28;101065.97;5015471;28;20117;-91
2021/05/02 07:03:24;;;;;;;19.30;17.27;;;;;;;10.44;72.20;101069.09;5015414;28;20025;-92
2021/05/02 07:05:49;;;;;;;18.35;15.52;;;;;;;10.91;67.66;101062.03;5014867;28;20040;-90
2021/05/02 07:08:15;;;;;;;17.70;15.73;;;;;;;11.14;69.25;101068.56;5014790;28;20390;-90
2021/05/02 07:10:40;;;;;;;17.58;15.52;;;;;;;11.85;66.23;101067.72;5014289;28;20021;-90
2021/05/02 07:13:05;;;;;;;18.13;15.88;;;;;;;12.20;61.51;101072.56;5015205;28;20460;-90
2021/05/02 07:15:31;;;;;;;17.42;15.57;;;;;;;13.02;65.09;101064.59;5015306;28;20033;-90
2021/05/02 07:17:56;;;;;;;17.42;15.52;;;;;;;13.73;59.33;101068.50;5014499;28;20033;-89
2021/05/02 07:20:22;;;;;;;16.13;14.27;;;;;;;14.67;58.69;101067.00;5014585;28;20036;-91
2021/05/02 07:22:52;;;;;;;18.42;14.77;;;;;;;15.53;56.13;101059.59;5014562;28;20527;-90
2021/05/02 07:25:22;;;;;;;15.57;13.95;;;;;;;16.44;51.00;101067.28;5014319;28;20029;-90
2021/05/02 07:27:47;;;;;;;15.50;13.63;;;;;;;17.08;49.47;101067.34;5014162;28;20109;-90
2021/05/02 07:30:13;;;;;;;15.02;13.52;;;;;;;17.70;46.45;101068.22;5014180;28;20061;-90
2021/05/02 07:32:39;;;;;;;14.93;13.38;;;;;;;17.01;45.94;101073.19;5014370;28;20073;-89
2021/05/02 07:35:05;;;;;;;13.90;11.98;;;;;;;17.25;46.75;101074.72;5014388;28;20448;-90
2021/05/02 07:37:30;;;;;;;13.35;12.05;;;;;;;18.10;46.69;101060.25;5014231;28;20529;-90
2021/05/02 07:39:56;;;;;;;12.95;11.60;;;;;;;18.04;43.79;101071.41;5014039;28;20025;-91
2021/05/02 07:42:21;;;;;;;12.98;11.68;;;;;;;19.07;45.25;101069.22;4999603;28;20112;-91
2021/05/02 07:44:47;;;;;;;12.50;11.40;;;;;;;19.30;41.54;101069.72;4997781;28;20475;-90
2021/05/02 07:47:12;;;;;;;12.10;10.90;;;;;;;19.41;41.28;101073.06;5045870;23;20053;-86
2021/05/02 07:49:38;;;;;;;11.38;10.27;;;;;;;20.14;41.45;101074.97;5010129;28;20042;-87
2021/05/02 07:52:04;;;;;;;11.32;10.13;;;;;;;20.54;39.00;101070.19;5012218;28;20057;-86
2021/05/02 07:54:29;;;;;;;11.88;10.60;;;;;;;21.12;37.16;101074.16;5012240;28;20037;-87
2021/05/02 07:56:54;;;;;;;11.50;9.75;;;;;;;21.27;37.56;101072.59;5011750;28;20498;-87
2021/05/02 07:59:20;;;;;;;10.13;9.13;;;;;;;21.60;35.99;101078.13;5002994;28;20026;-87
2021/05/02 08:01:46;;;;;;;10.02;8.90;;;;;;;22.39;35.29;101078.72;5011631;28;20028;-87
2021/05/02 08:04:11;;;;;;;13.15;11.38;;;;;;;22.46;32.67;101071.72;5011093;28;20116;-87
2021/05/02 08:06:36;;;;;;;12.50;11.23;;;;;;;22.53;34.45;101075.41;5011551;28;20118;-86
2021/05/02 08:09:02;;;;;;;11.35;10.10;;;;;;;22.82;34.50;101068.69;5007072;28;20054;-88
2021/05/02 08:11:27;;;;;;;15.63;14.05;;;;;;;23.22;32.87;101067.00;5010045;28;20029;-88
2021/05/02 08:13:53;;;;;;;13.73;12.25;;;;;;;23.53;33.15;101071.59;5012338;28;20114;-88
2021/05/02 08:16:20;;;;;;;12.65;11.38;;;;;;;23.79;33.11;101070.53;5011756;28;20036;-88
2021/05/02 08:18:45;;;;;;;11.60;10.50;;;;;;;24.22;32.62;101070.97;5009768;28;20026;-88
2021/05/02 08:21:10;;;;;;;11.02;9.93;;;;;;;24.74;31.04;101071.09;5010876;28;20029;-88
2021/05/02 08:23:36;;;;;;;13.27;11.88;;;;;;;25.12;31.34;101075.63;5010854;28;20028;-88
2021/05/02 08:26:03;;;;;;;12.23;11.02;;;;;;;25.33;30.48;101070.38;5009761;28;20503;-88
2021/05/02 08:28:29;;;;;;;11.43;10.32;;;;;;;25.98;29.72;101069.78;5010755;28;20033;-89
2021/05/02 08:30:54;;;;;;;11.77;10.55;;;;;;;24.67;30.01;101070.16;5010864;28;20030;-87
2021/05/02 08:33:19;;;;;;;10.95;9.52;;;;;;;25.12;28.70;101072.94;5010345;28;20026;-89
2021/05/02 08:35:48;;;;;;;10.82;9.70;;;;;;;25.49;29.62;101071.19;5009563;28;20029;-89
2021/05/02 08:38:14;;;;;;;13.40;11.55;;;;;;;25.87;28.71;101073.75;5012269;28;20026;-89
2021/05/02 08:40:39;;;;;;;10.13;9.05;;;;;;;26.06;28.30;101070.47;5003359;28;20045;-88
2021/05/02 08:43:05;;;;;;;9.57;8.57;;;;;;;24.96;28.72;101073.09;5008948;28;20029;-88
2021/05/02 08:45:33;;;;;;;9.30;8.40;;;;;;;26.15;26.66;101067.69;5005823;28;20053;-88
2021/05/02 08:47:59;;;;;;;8.95;8.02;;;;;;;26.71;26.05;101067.84;5027337;23;20049;-91
2021/05/02 08:50:24;;;;;;;8.50;6.90;;;;;;;27.09;27.09;101062.09;5009857;28;20519;-91
2021/05/02 08:52:50;;;;;;;10.32;7.90;;;;;;;26.62;27.01;101079.75;4987208;28;20392;-92
2021/05/02 08:55:15;;;;;;;6.05;5.45;;;;;;;26.10;27.05;101077.16;5003198;28;20388;-91
2021/05/02 08:57:41;;;;;;;7.55;5.88;;;;;;;25.79;24.72;101077.41;5011590;28;20028;-91
2021/05/02 09:00:09;;;;;;;8.73;5.85;;;;;;;26.31;25.19;101083.59;4997268;28;20034;-90
2021/05/02 09:02:35;;;;;;;6.72;5.35;;;;;;;25.98;26.69;101077.84;4991243;28;20404;-89
2021/05/02 09:05:04;;;;;;;5.63;5.13;;;;;;;26.34;25.79;101075.13;4991711;28;20034;-89
2021/05/02 09:07:43;;;;;;;10.27;5.53;;;;;;;26.28;24.86;101071.38;4993125;28;20089;-89
2021/05/02 09:10:13;;;;;;;5.70;5.18;;;;;;;27.29;25.94;101071.19;4993713;28;20076;-90
2021/05/02 09:12:41;;;;;;;6.45;5.80;;;;;;;26.58;26.28;101067.69;4993577;28;20025;-90
2021/05/02 09:15:20;;;;;;;5.72;5.07;;;;;;;26.81;26.51;101060.25;4993682;28;20029;-89
2021/05/02 09:17:50;;;;;;;6.50;5.47;;;;;;;28.37;23.13;101067.03;4993304;28;20034;-89
2021/05/02 09:20:51;;;;;;;6.22;5.57;;;;;;;28.01;24.57;101068.22;4992777;28;20032;-89
2021/05/02 09:23:18;;;;;;;10.00;5.80;;;;;;;26.95;24.62;101060.34;4987559;28;20033;-89
2021/05/02 09:25:54;;;;;;;5.82;4.88;;;;;;;26.90;24.97;101072.56;4993484;28;20037;-89
2021/05/02 09:28:41;;;;;;;6.70;4.80;;;;;;;27.99;22.60;101064.88;4998664;28;20041;-89
2021/05/02 09:31:08;;;;;;;4.72;4.15;;;;;;;28.60;22.51;101066.69;4985603;28;20362;-90
2021/05/02 09:33:35;;;;;;;5.10;4.60;;;;;;;28.79;22.74;101060.44;4988598;28;20512;-89
2021/05/02 09:36:01;;;;;;;7.07;4.72;;;;;;;28.05;23.55;101059.50;4988483;28;20022;-90
2021/05/02 09:38:27;;;;;;;5.60;5.03;;;;;;;27.93;23.70;101069.22;4987450;28;20030;-89
2021/05/02 09:40:59;;;;;;;7.38;4.30;;;;;;;28.62;23.61;101062.72;4984272;28;20117;-90
2021/05/02 09:43:31;;;;;;;5.82;3.42;;;;;;;28.07;22.63;101057.41;4990417;28;20029;-89
2021/05/02 09:48:57;;;;;;;2.45;2.20;;;;;;;28.79;20.86;101052.34;5013142;28;20440;-89
2021/05/02 09:51:25;;;;;;;3.80;2.80;;;;;;;28.77;21.39;101049.00;4998438;28;20137;-88
2021/05/02 09:54:18;;;;;;;3.70;2.85;;;;;;;29.05;19.21;101058.75;4997646;28;20022;-89
2021/05/02 09:56:52;;;;;;;2.83;2.55;;;;;;;27.63;21.88;101045.22;4987989;28;20018;-89
2021/05/02 09:59:47;;;;;;;2.53;1.80;;;;;;;28.31;21.49;101047.06;4979915;28;20030;-89
2021/05/02 10:02:12;;;;;;;1.17;0.90;;;;;;;28.95;19.73;101058.31;4990738;28;20037;-89
2021/05/02 10:04:46;;;;;;;3.10;1.17;;;;;;;29.75;18.26;101058.16;4998160;28;20117;-89
2021/05/02 10:07:28;;;;;;;2.08;1.27;;;;;;;30.42;16.74;101047.78;4998047;28;20033;-89
2021/05/02 10:09:55;;;;;;;2.10;1.15;;;;;;;30.86;16.34;101047.81;4982083;28;20030;-90
2021/05/02 10:12:21;;;;;;;1.95;1.27;;;;;;;31.41;18.18;101050.59;4996138;28;20369;-89
2021/05/02 10:14:49;;;;;;;1.05;0.95;;;;;;;31.67;17.66;101046.75;4996482;28;20025;-89
2021/05/02 10:17:15;;;;;;;1.33;1.02;;;;;;;30.44;18.29;101042.97;4996275;28;20546;-89
2021/05/02 10:19:41;;;;;;;4.55;1.40;;;;;;;29.49;20.36;101049.06;4991550;28;20058;-91
2021/05/02 10:22:07;;;;;;;3.45;1.67;;;;;;;29.78;20.02;101046.88;4997114;28;20026;-93
2021/05/02 10:24:33;;;;;;;4.43;1.90;;;;;;;28.90;19.50;101047.31;4995534;28;20361;-91
2021/05/02 10:26:58;;;;;;;2.00;1.80;;;;;;;30.07;18.76;101047.38;4998552;28;20040;-90
2021/05/02 10:29:29;;;;;;;4.03;1.50;;;;;;;29.40;18.41;101040.34;4993558;28;20514;-89
2021/05/02 10:32:00;;;;;;;2.60;1.67;;;;;;;29.93;17.15;101039.31;5015266;28;20026;-89
2021/05/02 10:34:34;;;;;;;3.15;1.80;;;;;;;29.71;17.87;101040.66;4993753;28;20040;-91
2021/05/02 10:37:25;;;;;;;2.85;1.73;;;;;;;29.61;18.33;101046.53;4995694;28;20437;-89
2021/05/02 10:40:10;;;;;;;2.05;1.58;;;;;;;29.11;19.76;101044.38;4995777;28;20026;-90
2021/05/02 10:42:52;;;;;;;1.90;1.20;;;;;;;30.12;17.64;101036.72;4981512;28;20030;-91
2021/05/02 10:45:27;;;;;;;3.38;1.50;;;;;;;30.65;17.41;101033.63;5012143;28;20480;-91
2021/05/02 10:47:56;;;;;;;2.20;1.77;;;;;;;28.61;18.62;101038.59;4995700;28;20430;-91
2021/05/02 10:50:36;;;;;;;2.10;1.60;;;;;;;29.52;17.45;101037.81;4980570;28;20049;-90
2021/05/02 10:53:08;;;;;;;2.60;2.00;;;;;;;30.73;16.96;101027.94;4979005;28;20540;-90
2021/05/02 10:55:53;;;;;;;3.35;1.70;;;;;;;30.89;16.21;101026.56;4995674;28;20707;-92
2021/05/02 10:58:22;;;;;;;3.70;2.03;;;;;;;30.71;18.80;101031.88;4986670;28;20088;-91
2021/05/02 11:00:49;;;;;;;4.50;2.10;;;;;;;29.02;18.26;101024.00;4990839;28;20536;-92
2021/05/02 11:03:39;;;;;;;2.30;1.90;;;;;;;27.83;19.31;101028.28;4998989;28;20077;-91
2021/05/02 11:06:07;;;;;;;3.63;1.95;;;;;;;28.15;20.67;101033.97;5026473;28;20080;-93
2021/05/02 11:08:46;;;;;;;3.65;2.40;;;;;;;28.32;22.28;101024.44;4996578;28;20030;-90
2021/05/02 11:11:37;;;;;;;2.92;2.00;;;;;;;28.28;20.57;101023.19;4992689;28;20026;-95
2021/05/02 11:16:34;;;;;;;3.53;2.20;;;;;;;27.16;22.37;101024.41;5011162;28;20041;-94
2021/05/02 11:19:00;;;;;;;3.50;2.78;;;;;;;26.84;21.70;101024.00;4987255;28;20041;-89
2021/05/02 11:21:26;;;;;;;5.63;3.00;;;;;;;27.34;23.89;101024.75;4983789;28;20028;-91
2021/05/02 11:24:01;;;;;;;4.20;2.38;;;;;;;26.80;22.50;101018.19;4994232;28;20105;-92
2021/05/02 11:27:07;;;;;;;3.15;2.63;;;;;;;27.81;21.95;101024.94;4990080;28;20045;-90
2021/05/02 11:32:04;;;;;;;;;;;;;;;26.34;22.91;101029.34;5010423;28;20029;-94
2021/05/02 11:34:51;;;;;;;3.05;2.63;;;;;;;27.41;19.89;101028.31;4992908;28;19921;-90